createdAt,value
2022-10-24T00:03:42.682Z,15.90
2022-10-24T00:08:46.198Z,15.90
2022-10-24T00:13:49.399Z,16.00
2022-10-24T00:18:51.962Z,16.00
2022-10-24T00:23:54.809Z,16.00
2022-10-24T00:28:57.530Z,16.00
2022-10-24T00:34:00.874Z,16.00
2022-10-24T00:39:03.971Z,16.00
2022-10-24T00:44:26.153Z,16.00
2022-10-24T00:49:46.940Z,16.00
2022-10-24T00:54:51.404Z,15.90
2022-10-24T00:59:58.218Z,15.90
2022-10-24T01:05:02.228Z,15.90
2022-10-24T01:10:27.568Z,15.90
2022-10-24T01:15:40.465Z,15.90
2022-10-24T01:20:55.425Z,15.90
2022-10-24T01:26:23.230Z,15.80
2022-10-24T01:31:30.276Z,15.80
2022-10-24T01:36:43.704Z,15.80
2022-10-24T01:41:47.188Z,15.80
2022-10-24T01:47:17.502Z,15.80
2022-10-24T01:52:21.268Z,15.80
2022-10-24T01:57:29.195Z,15.80
2022-10-24T02:02:37.971Z,15.70
2022-10-24T02:07:42.665Z,15.70
2022-10-24T02:12:49.618Z,15.70
2022-10-24T02:17:53.544Z,15.70
2022-10-24T02:23:06.206Z,15.60
2022-10-24T02:28:16.651Z,15.60
2022-10-24T02:33:20.091Z,15.50
2022-10-24T02:38:33.162Z,15.50
2022-10-24T02:43:36.239Z,15.40
2022-10-24T02:48:43.048Z,15.30
2022-10-24T02:53:46.707Z,15.20
2022-10-24T02:58:49.832Z,15.20
2022-10-24T03:03:52.701Z,15.10
2022-10-24T03:08:55.476Z,15.10
2022-10-24T03:13:58.219Z,15.00
2022-10-24T03:19:01.168Z,15.00
2022-10-24T03:24:04.235Z,15.00
2022-10-24T03:29:06.964Z,14.90
2022-10-24T03:34:09.772Z,14.90
2022-10-24T03:39:12.526Z,14.80
2022-10-24T03:44:15.366Z,14.80
2022-10-24T03:49:18.173Z,14.70
2022-10-24T03:54:20.761Z,14.60
2022-10-24T03:59:23.574Z,14.70
2022-10-24T04:04:26.376Z,14.60
2022-10-24T04:09:29.090Z,14.60
2022-10-24T04:14:32.111Z,14.60
2022-10-24T04:19:34.774Z,14.50
2022-10-24T04:24:39.573Z,14.60
2022-10-24T04:29:42.427Z,14.50
2022-10-24T04:34:45.247Z,14.50
2022-10-24T04:39:47.859Z,14.50
2022-10-24T04:44:50.929Z,14.50
2022-10-24T04:49:53.812Z,14.40
2022-10-24T04:54:56.589Z,14.30
2022-10-24T04:59:59.782Z,14.30
2022-10-24T05:05:02.474Z,14.30
2022-10-24T05:10:06.018Z,14.30
2022-10-24T05:15:09.387Z,14.40
2022-10-24T05:20:12.284Z,14.40
2022-10-24T05:25:15.032Z,14.30
2022-10-24T05:30:18.078Z,14.40
2022-10-24T05:35:20.835Z,14.30
2022-10-24T05:40:23.570Z,14.40
2022-10-24T05:45:26.341Z,14.40
2022-10-24T05:50:30.164Z,14.30
2022-10-24T05:55:33.657Z,14.30
2022-10-24T06:00:36.357Z,14.30
2022-10-24T06:05:39.147Z,14.30
2022-10-24T06:10:42.414Z,14.30
2022-10-24T06:15:45.770Z,14.30
2022-10-24T06:20:54.057Z,14.20
2022-10-24T06:25:59.208Z,14.20
2022-10-24T06:31:03.552Z,14.20
2022-10-24T06:36:09.518Z,14.20
2022-10-24T06:41:14.997Z,14.20
2022-10-24T06:46:17.926Z,14.10
2022-10-24T06:51:20.764Z,14.10
2022-10-24T06:56:23.593Z,14.00
2022-10-24T07:01:27.614Z,13.90
2022-10-24T07:06:30.474Z,13.80
2022-10-24T07:11:34.563Z,13.80
2022-10-24T07:16:37.480Z,13.80
2022-10-24T07:21:40.256Z,13.80
2022-10-24T07:26:43.131Z,13.80
2022-10-24T07:31:46.954Z,13.80
2022-10-24T07:36:49.705Z,13.90
2022-10-24T07:41:52.424Z,14.00
2022-10-24T07:46:55.297Z,14.00
2022-10-24T07:51:58.045Z,14.00
2022-10-24T07:57:00.997Z,14.00
2022-10-24T08:02:03.789Z,13.90
2022-10-24T08:07:13.437Z,14.00
2022-10-24T08:12:17.112Z,14.00
2022-10-24T08:17:19.900Z,14.00
2022-10-24T08:22:22.660Z,14.10
2022-10-24T08:27:25.505Z,14.20
2022-10-24T08:32:28.265Z,14.20
2022-10-24T08:37:31.104Z,14.30
2022-10-24T08:42:33.840Z,14.40
2022-10-24T08:52:42.945Z,14.50
2022-10-24T08:57:54.376Z,14.60
2022-10-24T09:03:26.647Z,14.60
2022-10-24T09:09:00.620Z,14.60
2022-10-24T09:14:12.112Z,14.70
2022-10-24T09:19:17.467Z,14.80
2022-10-24T09:24:38.968Z,14.80
2022-10-24T09:29:41.946Z,14.90
2022-10-24T09:34:45.036Z,14.90
2022-10-24T09:39:48.031Z,14.90
2022-10-24T09:44:50.794Z,14.90
2022-10-24T09:49:54.253Z,15.00
2022-10-24T09:55:05.206Z,14.90
2022-10-24T10:00:22.876Z,14.90
2022-10-24T10:05:25.946Z,14.90
2022-10-24T10:10:32.200Z,15.00
2022-10-24T10:15:46.208Z,15.00
2022-10-24T10:21:03.041Z,15.10
2022-10-24T10:26:05.809Z,15.20
2022-10-24T10:31:10.295Z,15.30
2022-10-24T10:36:21.126Z,15.40
2022-10-24T10:41:42.977Z,15.50
2022-10-24T10:47:17.458Z,15.70
2022-10-24T10:52:31.329Z,15.70
2022-10-24T10:57:40.327Z,15.90
2022-10-24T11:03:07.638Z,15.90
2022-10-24T11:08:31.255Z,16.00
2022-10-24T11:13:54.478Z,16.00
2022-10-24T11:19:05.376Z,16.10
2022-10-24T11:24:21.357Z,16.10
2022-10-24T11:29:33.387Z,16.20
2022-10-24T11:34:50.712Z,16.30
2022-10-24T11:40:01.071Z,16.30
2022-10-24T11:45:14.316Z,16.40
2022-10-24T11:50:38.949Z,16.50
2022-10-24T11:55:47.320Z,16.70
2022-10-24T12:01:24.081Z,16.90
2022-10-24T12:07:02.274Z,16.90
2022-10-24T12:12:23.568Z,16.90
2022-10-24T12:17:32.556Z,16.90
2022-10-24T12:22:38.151Z,16.90
2022-10-24T12:27:41.865Z,16.90
2022-10-24T12:32:48.448Z,16.90
2022-10-24T12:37:51.304Z,17.00
2022-10-24T12:42:59.128Z,17.10
2022-10-24T12:48:14.166Z,17.30
2022-10-24T12:53:18.521Z,17.30
2022-10-24T12:58:35.825Z,17.30
2022-10-24T13:03:50.620Z,17.30
2022-10-24T13:09:06.450Z,17.20
2022-10-24T13:14:46.201Z,17.10
2022-10-24T13:20:21.850Z,17.10
2022-10-24T13:25:35.403Z,17.20
2022-10-24T13:30:38.117Z,17.20
2022-10-24T13:35:40.984Z,17.20
2022-10-24T13:40:44.375Z,17.20
2022-10-24T13:45:53.783Z,17.20
2022-10-24T13:51:12.851Z,17.20
2022-10-24T13:56:16.547Z,17.20
2022-10-24T14:01:28.326Z,17.20
2022-10-24T14:06:33.662Z,17.20
2022-10-24T14:11:45.892Z,17.10
2022-10-24T14:17:04.258Z,17.10
2022-10-24T14:22:18.734Z,17.10
2022-10-24T14:27:21.429Z,17.00
2022-10-24T14:32:25.797Z,16.90
2022-10-24T14:37:35.026Z,16.90
2022-10-24T14:42:38.827Z,16.90
2022-10-24T14:47:50.740Z,16.90
2022-10-24T14:52:53.703Z,16.80
2022-10-24T14:57:57.051Z,16.80
2022-10-24T15:03:01.438Z,16.80
2022-10-24T15:08:22.081Z,16.80
2022-10-24T15:13:25.855Z,16.80
2022-10-24T15:18:41.286Z,16.80
2022-10-24T15:23:53.723Z,16.70
2022-10-24T15:29:13.530Z,16.70
2022-10-24T15:34:23.708Z,16.70
2022-10-24T15:39:26.671Z,16.60
2022-10-24T15:44:31.090Z,16.60
2022-10-24T15:49:35.179Z,16.50
2022-10-24T15:54:38.031Z,16.50
2022-10-24T15:59:40.830Z,16.50
2022-10-24T16:04:44.547Z,16.50
2022-10-24T16:09:47.340Z,16.40
2022-10-24T16:14:50.147Z,16.40
2022-10-24T16:19:52.949Z,16.40
2022-10-24T16:24:55.753Z,16.30
2022-10-24T16:29:58.534Z,16.30
2022-10-24T16:35:01.406Z,16.20
2022-10-24T16:40:04.496Z,16.20
2022-10-24T16:45:08.000Z,16.20
2022-10-24T16:50:17.411Z,16.20
2022-10-24T16:55:21.464Z,16.20
2022-10-24T17:00:25.216Z,16.20
2022-10-24T17:05:28.939Z,16.20
2022-10-24T17:10:32.012Z,16.20
2022-10-24T17:15:35.219Z,16.20
2022-10-24T17:20:37.795Z,16.10
2022-10-24T17:25:40.986Z,16.10
2022-10-24T17:30:44.317Z,16.10
2022-10-24T17:35:52.486Z,16.00
2022-10-24T17:40:57.096Z,15.90
2022-10-24T17:46:00.075Z,15.90
2022-10-24T17:51:02.815Z,15.80
2022-10-24T17:56:05.956Z,15.70
2022-10-24T18:01:09.211Z,15.60
2022-10-24T18:06:12.691Z,15.50
2022-10-24T18:11:15.465Z,15.30
2022-10-24T18:16:19.691Z,15.20
2022-10-24T18:21:24.817Z,15.10
2022-10-24T18:26:27.974Z,14.90
2022-10-24T18:31:31.405Z,14.90
2022-10-24T18:36:34.348Z,14.90
2022-10-24T18:41:49.331Z,14.90
2022-10-24T18:46:54.312Z,14.90
2022-10-24T18:52:09.280Z,14.80
2022-10-24T18:57:31.455Z,14.80
2022-10-24T19:02:54.903Z,14.70
2022-10-24T19:07:57.819Z,14.70
2022-10-24T19:13:00.886Z,14.70
2022-10-24T19:18:04.425Z,14.70
2022-10-24T19:23:07.224Z,14.60
2022-10-24T19:28:16.991Z,14.50
2022-10-24T19:33:20.800Z,14.40
2022-10-24T19:38:24.491Z,14.30
2022-10-24T19:43:30.804Z,14.20
2022-10-24T19:48:34.528Z,14.10
2022-10-24T19:53:39.364Z,14.00
2022-10-24T19:58:43.105Z,14.00
2022-10-24T20:03:47.348Z,14.00
2022-10-24T20:08:50.301Z,14.00
2022-10-24T20:13:53.356Z,14.00
2022-10-24T20:18:56.087Z,14.10
2022-10-24T20:23:58.864Z,14.10
2022-10-24T20:29:02.060Z,14.20
2022-10-24T20:34:09.747Z,14.20
2022-10-24T20:39:14.620Z,14.30
2022-10-24T20:44:17.398Z,14.40
2022-10-24T20:49:20.159Z,14.40
2022-10-24T20:54:22.980Z,14.50
2022-10-24T20:59:25.755Z,14.60
2022-10-24T21:04:28.567Z,14.60
2022-10-24T21:09:32.584Z,14.60
2022-10-24T21:14:35.304Z,14.70
2022-10-24T21:19:38.623Z,14.80
2022-10-24T21:24:41.431Z,14.80
2022-10-24T21:29:44.224Z,14.90
2022-10-24T21:34:47.034Z,14.80
2022-10-24T21:39:49.782Z,14.90
2022-10-24T21:44:52.581Z,14.80
2022-10-24T21:49:55.373Z,14.80
2022-10-24T21:54:58.168Z,14.80
2022-10-24T22:00:00.981Z,14.90
2022-10-24T22:05:04.532Z,14.90
2022-10-24T22:10:07.996Z,15.00
2022-10-24T22:15:10.968Z,15.10
2022-10-24T22:20:13.783Z,15.20
2022-10-24T22:25:16.662Z,15.20
2022-10-24T22:30:19.355Z,15.20
2022-10-24T22:35:22.580Z,15.10
2022-10-24T22:40:27.553Z,15.20
2022-10-24T22:45:30.667Z,15.20
2022-10-24T22:50:45.689Z,15.20
2022-10-24T22:56:13.921Z,15.20
2022-10-24T23:01:22.764Z,15.30
2022-10-24T23:06:53.677Z,15.30
2022-10-24T23:11:56.713Z,15.30
2022-10-24T23:17:00.569Z,15.30
2022-10-24T23:22:28.350Z,15.30
2022-10-24T23:27:43.131Z,15.20
2022-10-24T23:32:47.750Z,15.20
2022-10-24T23:37:52.682Z,15.20
2022-10-24T23:42:55.857Z,15.10
2022-10-24T23:48:16.681Z,15.10
2022-10-24T23:53:50.349Z,15.10
2022-10-24T23:58:53.588Z,15.10
